Time;durP1;ratioP1;P1;durP2;ratioP2;P2;SDS_P1;SDS_P2;PMS_P1;PMS_P2;Temp;Humidity;BMP_temperature;BMP_pressure;BME280_temperature;BME280_humidity;BME280_pressure;Samples;Min_cycle;Max_cycle;Signal;HPM_P1;HPM_P2
2023/12/15 00:04:04;;;;;;;1999.90;999.90;;;;;;;11.25;74.62;102573.59;10468276;28;20056;-75
2023/12/15 00:09:07;;;;;;;1999.90;999.90;;;;;;;11.44;71.44;102589.56;10469774;28;20467;-75
2023/12/15 00:14:09;;;;;;;1999.90;999.90;;;;;;;11.92;72.38;102590.66;10469269;28;20488;-75
2023/12/15 00:19:12;;;;;;;1999.90;999.90;;;;;;;11.65;74.21;102602.88;10469011;28;20404;-75
2023/12/15 00:24:15;;;;;;;1999.90;999.90;;;;;;;11.14;76.67;102604.53;10467756;28;20053;-75
2023/12/15 00:29:18;;;;;;;1999.90;999.90;;;;;;;11.43;74.45;102628.97;10467945;28;20049;-75
2023/12/15 00:34:21;;;;;;;1999.90;999.90;;;;;;;11.62;74.67;102608.25;10469160;28;20419;-75
2023/12/15 00:39:23;;;;;;;1999.90;999.90;;;;;;;11.50;75.75;102625.25;10468722;28;20488;-75
2023/12/15 00:44:26;;;;;;;1999.90;999.90;;;;;;;11.78;75.49;102622.56;10463001;28;20060;-75
2023/12/15 00:49:28;;;;;;;1999.90;999.90;;;;;;;11.67;75.56;102632.59;10462171;28;20052;-75
2023/12/15 00:54:30;;;;;;;1999.90;999.90;;;;;;;11.40;77.78;102629.06;10462135;28;20045;-75
2023/12/15 00:59:33;;;;;;;1999.90;999.90;;;;;;;11.29;76.64;102621.53;10460453;28;20071;-75
2023/12/15 01:04:36;;;;;;;1999.90;999.90;;;;;;;11.82;74.52;102626.81;10460412;28;20057;-75
2023/12/15 01:09:38;;;;;;;1999.90;999.90;;;;;;;11.64;76.86;102619.56;10461276;28;20045;-75
2023/12/15 01:14:41;;;;;;;1999.90;999.90;;;;;;;10.86;79.31;102633.31;10460044;28;20081;-75
2023/12/15 01:19:43;;;;;;;1999.90;999.90;;;;;;;10.97;80.28;102634.72;10460755;28;20051;-75
2023/12/15 01:24:45;;;;;;;1999.90;999.90;;;;;;;11.13;80.31;102637.75;10459359;28;20411;-75
2023/12/15 01:29:48;;;;;;;1999.90;999.90;;;;;;;11.52;77.88;102649.66;10459316;28;20049;-75
2023/12/15 01:34:50;;;;;;;1999.90;999.90;;;;;;;11.84;77.83;102661.75;10459632;28;20063;-75
2023/12/15 01:39:52;;;;;;;1999.90;999.90;;;;;;;11.49;78.12;102665.50;10458846;28;20484;-75
2023/12/15 01:44:55;;;;;;;1999.90;999.90;;;;;;;11.68;78.75;102677.16;10459905;28;20053;-75
2023/12/15 01:49:58;;;;;;;1999.90;999.90;;;;;;;12.36;73.73;102693.28;10442275;28;20377;-75
2023/12/15 01:55:00;;;;;;;1999.90;999.90;;;;;;;12.26;75.92;102698.00;10458185;28;20059;-75
2023/12/15 02:00:07;;;;;;;1999.90;999.90;;;;;;;12.15;75.77;102687.00;10458066;28;20503;-75
2023/12/15 02:05:09;;;;;;;1999.90;999.90;;;;;;;12.00;77.04;102685.75;10459259;28;20102;-75
2023/12/15 02:10:12;;;;;;;1999.90;999.90;;;;;;;11.90;77.50;102693.03;10459149;28;20057;-75
2023/12/15 02:15:14;;;;;;;1999.90;999.90;;;;;;;12.86;73.18;102683.63;10458699;28;20053;-75
2023/12/15 02:20:17;;;;;;;1999.90;999.90;;;;;;;12.34;73.97;102697.75;10458465;28;20056;-75
2023/12/15 02:25:19;;;;;;;1999.90;999.90;;;;;;;12.11;76.84;102705.53;10457222;28;20053;-75
2023/12/15 02:30:22;;;;;;;1999.90;999.90;;;;;;;11.90;77.78;102724.53;10457024;28;20065;-75
2023/12/15 02:35:24;;;;;;;1999.90;999.90;;;;;;;11.52;81.88;102729.22;10456713;28;20099;-75
2023/12/15 02:40:26;;;;;;;1999.90;999.90;;;;;;;12.31;75.93;102732.00;10457844;28;20049;-75
2023/12/15 02:45:29;;;;;;;1999.90;999.90;;;;;;;11.80;79.11;102738.88;10456384;28;20480;-75
2023/12/15 02:50:31;;;;;;;1999.90;999.90;;;;;;;12.05;79.27;102752.09;10457326;28;20133;-75
2023/12/15 02:55:34;;;;;;;1999.90;999.90;;;;;;;11.99;77.80;102743.56;10457253;28;20049;-75
2023/12/15 03:00:36;;;;;;;1999.90;999.90;;;;;;;11.89;76.64;102756.09;10456220;28;20041;-75
2023/12/15 03:05:38;;;;;;;1999.90;999.90;;;;;;;11.22;82.69;102756.38;10456598;28;20102;-75
2023/12/15 03:10:41;;;;;;;1999.90;999.90;;;;;;;12.29;80.66;102756.56;10456739;28;20472;-75
2023/12/15 03:15:43;;;;;;;1999.90;999.90;;;;;;;11.92;77.93;102758.66;10439042;28;20506;-75
2023/12/15 03:20:46;;;;;;;1999.90;999.90;;;;;;;12.51;77.73;102770.72;10455150;28;20472;-75
2023/12/15 03:25:48;;;;;;;1999.90;999.90;;;;;;;12.20;76.96;102776.13;10455156;28;20519;-75
2023/12/15 03:30:50;;;;;;;1999.90;999.90;;;;;;;12.09;79.22;102779.13;10456221;28;20047;-75
2023/12/15 03:35:53;;;;;;;1999.90;999.90;;;;;;;12.32;77.75;102790.63;10455353;28;20140;-75
2023/12/15 03:40:55;;;;;;;1999.90;999.90;;;;;;;12.10;77.94;102795.72;10454870;28;20403;-75
2023/12/15 03:45:58;;;;;;;1999.90;999.90;;;;;;;12.42;76.64;102813.94;10455957;28;20063;-75
2023/12/15 03:51:00;;;;;;;1999.90;999.90;;;;;;;12.14;78.87;102815.69;10456033;28;20051;-75
2023/12/15 03:56:03;;;;;;;1999.90;999.90;;;;;;;12.10;80.24;102814.94;10454718;28;20077;-75
2023/12/15 04:01:05;;;;;;;1999.90;999.90;;;;;;;12.42;78.63;102818.28;10455867;28;20073;-75
2023/12/15 04:06:08;;;;;;;1999.90;999.90;;;;;;;13.13;76.35;102810.59;10454471;28;20052;-75
2023/12/15 04:11:11;;;;;;;1999.90;999.90;;;;;;;12.97;78.46;102813.78;10454633;28;20045;-75
2023/12/15 04:16:13;;;;;;;1999.90;999.90;;;;;;;12.66;79.06;102823.66;10455470;28;20131;-75
2023/12/15 04:21:16;;;;;;;1999.90;999.90;;;;;;;12.28;79.66;102829.25;10459992;28;20460;-75
2023/12/15 04:26:18;;;;;;;1999.90;999.90;;;;;;;12.47;79.81;102832.13;10463247;28;20053;-75
2023/12/15 04:31:21;;;;;;;1999.90;999.90;;;;;;;12.57;78.96;102832.69;10461746;28;20045;-75
2023/12/15 04:36:23;;;;;;;1999.90;999.90;;;;;;;12.74;77.33;102840.00;10462534;28;20510;-75
2023/12/15 04:41:27;;;;;;;1999.90;999.90;;;;;;;12.53;77.87;102842.47;10462467;28;20045;-75
2023/12/15 04:46:30;;;;;;;1999.90;999.90;;;;;;;12.38;80.47;102842.97;10461199;28;20073;-75
2023/12/15 04:51:32;;;;;;;1999.90;999.90;;;;;;;11.89;83.64;102854.06;10460876;28;20041;-76
2023/12/15 04:56:35;;;;;;;1999.90;999.90;;;;;;;12.61;79.96;102871.13;10460810;28;20053;-75
2023/12/15 05:01:37;;;;;;;1999.90;999.90;;;;;;;12.44;79.87;102867.28;10461975;28;20056;-75
2023/12/15 05:06:39;;;;;;;1999.90;999.90;;;;;;;12.27;79.58;102877.44;10461543;28;20044;-75
2023/12/15 05:11:42;;;;;;;1999.90;999.90;;;;;;;12.38;80.50;102880.59;10461528;28;20083;-75
2023/12/15 05:16:44;;;;;;;1999.90;999.90;;;;;;;13.12;78.47;102877.28;10461180;28;20091;-75
2023/12/15 05:21:47;;;;;;;1999.90;999.90;;;;;;;13.28;76.75;102894.25;10460715;28;20044;-75
2023/12/15 05:26:49;;;;;;;1999.90;999.90;;;;;;;12.12;83.65;102894.56;10461028;28;20064;-75
2023/12/15 05:31:51;;;;;;;1999.90;999.90;;;;;;;13.23;77.54;102901.44;10458763;28;20049;-75
2023/12/15 05:36:54;;;;;;;1999.90;999.90;;;;;;;12.80;80.28;102916.03;10460507;28;20052;-75
2023/12/15 05:41:56;;;;;;;1999.90;999.90;;;;;;;12.05;80.12;102930.63;10442430;28;20081;-75
2023/12/15 05:46:58;;;;;;;1999.90;999.90;;;;;;;13.11;78.28;102925.53;10459881;28;20049;-75
2023/12/15 05:52:01;;;;;;;1999.90;999.90;;;;;;;12.82;76.26;102922.09;10442290;28;20076;-75
2023/12/15 05:57:03;;;;;;;1999.90;999.90;;;;;;;13.20;77.15;102918.19;10459473;28;20395;-75
2023/12/15 06:02:06;;;;;;;1999.90;999.90;;;;;;;13.12;78.69;102930.72;10458188;28;20095;-75
2023/12/15 06:07:09;;;;;;;1999.90;999.90;;;;;;;13.63;75.84;102920.22;10458790;28;20060;-75
2023/12/15 06:12:11;;;;;;;1999.90;999.90;;;;;;;12.91;76.71;102940.22;10457847;28;20124;-75
2023/12/15 06:17:13;;;;;;;1999.90;999.90;;;;;;;13.33;75.61;102933.56;10441228;28;20053;-75
2023/12/15 06:22:16;;;;;;;1999.90;999.90;;;;;;;13.45;77.36;102948.06;10458254;28;20439;-75
2023/12/15 06:27:18;;;;;;;1999.90;999.90;;;;;;;13.70;75.01;102945.41;10457084;28;20049;-75
2023/12/15 06:32:20;;;;;;;1999.90;999.90;;;;;;;12.60;77.87;102951.69;10457053;28;20045;-75
2023/12/15 06:37:23;;;;;;;1999.90;999.90;;;;;;;12.67;78.05;102975.19;10440520;28;20052;-75
2023/12/15 06:42:25;;;;;;;1999.90;999.90;;;;;;;14.01;73.86;102970.63;10455872;28;20045;-75
2023/12/15 06:47:27;;;;;;;1999.90;999.90;;;;;;;13.72;74.19;102968.13;10456491;28;20053;-75
2023/12/15 06:52:30;;;;;;;1999.90;999.90;;;;;;;13.52;72.80;102973.25;10457557;28;20045;-75
2023/12/15 06:57:32;;;;;;;1999.90;999.90;;;;;;;14.04;72.84;102983.69;10439499;28;20044;-75
2023/12/15 07:02:35;;;;;;;1999.90;999.90;;;;;;;13.23;78.03;102996.13;10457211;28;20051;-75
2023/12/15 07:07:38;;;;;;;1999.90;999.90;;;;;;;13.89;73.83;103006.16;10455781;28;20055;-75
2023/12/15 07:12:41;;;;;;;1999.90;999.90;;;;;;;13.30;74.72;103004.69;10455825;28;20052;-75
2023/12/15 07:17:43;;;;;;;1999.90;999.90;;;;;;;12.82;80.85;103003.59;10456616;28;20582;-75
2023/12/15 07:22:46;;;;;;;1999.90;999.90;;;;;;;13.65;76.52;103005.25;10456475;28;20512;-75
2023/12/15 07:27:49;;;;;;;1999.90;999.90;;;;;;;12.96;77.73;103025.06;10455415;28;20055;-75
2023/12/15 07:32:51;;;;;;;1999.90;999.90;;;;;;;12.77;78.96;103030.03;10456302;28;20076;-75
2023/12/15 07:37:55;;;;;;;1999.90;999.90;;;;;;;12.86;80.55;103039.41;10462607;22;20080;-69
2023/12/15 07:42:58;;;;;;;1999.90;999.90;;;;;;;13.46;79.87;103041.88;10456047;28;20063;-69
2023/12/15 07:48:02;;;;;;;1999.90;999.90;;;;;;;13.16;79.25;103039.31;10456055;28;20480;-69
2023/12/15 07:53:05;;;;;;;1999.90;999.90;;;;;;;13.20;79.46;103062.84;10457611;28;20052;-68
2023/12/15 07:58:10;;;;;;;1999.90;999.90;;;;;;;13.03;79.31;103062.53;10464222;28;20048;-69
2023/12/15 08:03:13;;;;;;;1999.90;999.90;;;;;;;13.40;80.05;103066.66;10463879;28;20049;-69
2023/12/15 08:08:15;;;;;;;1999.90;999.90;;;;;;;12.81;81.09;103075.50;10462708;28;20073;-68
2023/12/15 08:13:18;;;;;;;1999.90;999.90;;;;;;;12.65;82.16;103080.34;10462638;28;20051;-69
2023/12/15 08:18:20;;;;;;;1999.90;999.90;;;;;;;12.84;82.68;103088.53;10463425;28;20508;-69
2023/12/15 08:23:23;;;;;;;1999.90;999.90;;;;;;;12.89;82.92;103110.28;10463204;28;20068;-69
2023/12/15 08:28:25;;;;;;;1999.90;999.90;;;;;;;12.85;84.17;103116.56;10462096;28;20056;-69
2023/12/15 08:33:28;;;;;;;1999.90;999.90;;;;;;;12.77;81.49;103123.78;10462024;28;20045;-68
2023/12/15 08:38:31;;;;;;;1999.90;999.90;;;;;;;12.70;82.40;103135.41;10463026;28;20053;-69
2023/12/15 08:43:34;;;;;;;1999.90;999.90;;;;;;;12.99;80.20;103137.16;10444966;28;20045;-69
2023/12/15 08:48:36;;;;;;;1999.90;999.90;;;;;;;13.14;81.93;103138.47;10461565;28;20071;-69
2023/12/15 08:53:39;;;;;;;1999.90;999.90;;;;;;;13.22;80.78;103144.34;10462083;28;20484;-69
2023/12/15 08:58:42;;;;;;;1999.90;999.90;;;;;;;13.51;78.60;103156.59;10462401;28;20053;-69
2023/12/15 09:03:44;;;;;;;1999.90;999.90;;;;;;;13.11;82.44;103156.97;10459718;28;20041;-69
2023/12/15 09:08:47;;;;;;;1999.90;999.90;;;;;;;13.09;80.63;103164.03;10461448;28;20102;-69
2023/12/15 09:13:49;;;;;;;1999.90;999.90;;;;;;;13.43;80.43;103169.16;10460002;28;20399;-69
2023/12/15 09:18:51;;;;;;;1999.90;999.90;;;;;;;13.26;82.88;103189.84;10460322;28;20512;-69
2023/12/15 09:23:56;;;;;;;1999.90;999.90;;;;;;;12.65;81.97;103185.47;10460817;28;20049;-69
2023/12/15 09:28:59;;;;;;;1999.90;999.90;;;;;;;12.82;83.23;103201.59;10459738;28;20060;-69
2023/12/15 09:34:02;;;;;;;1999.90;999.90;;;;;;;13.56;81.29;103211.72;10460796;28;20072;-69
2023/12/15 09:39:04;;;;;;;1999.90;999.90;;;;;;;13.09;81.87;103240.31;10460465;28;20111;-69
2023/12/15 09:44:06;;;;;;;1999.90;999.90;;;;;;;13.84;78.98;103239.81;10460021;28;20041;-70
2023/12/15 09:49:11;;;;;;;1999.90;999.90;;;;;;;13.89;79.35;103248.44;10460194;28;20118;-69
2023/12/15 09:54:14;;;;;;;1999.90;999.90;;;;;;;13.55;80.50;103262.66;10458725;28;20049;-69
2023/12/15 09:59:16;;;;;;;1999.90;999.90;;;;;;;13.37;79.97;103264.94;10459504;28;20570;-69
2023/12/15 10:04:19;;;;;;;1999.90;999.90;;;;;;;13.53;78.16;103261.81;10458375;28;20045;-69
2023/12/15 10:09:21;;;;;;;1999.90;999.90;;;;;;;14.06;79.14;103256.63;10459188;28;20049;-69
2023/12/15 10:14:24;;;;;;;1999.90;999.90;;;;;;;13.70;79.86;103277.97;10457970;28;20099;-69
2023/12/15 10:19:26;;;;;;;1999.90;999.90;;;;;;;13.93;76.02;103282.50;10458789;28;20052;-70
2023/12/15 10:24:29;;;;;;;1999.90;999.90;;;;;;;14.20;77.43;103297.47;10458679;28;20132;-69
2023/12/15 10:29:31;;;;;;;1999.90;999.90;;;;;;;14.17;76.96;103298.44;10458386;28;20044;-69
2023/12/15 10:34:34;;;;;;;1999.90;999.90;;;;;;;14.02;77.86;103302.44;10456874;28;20095;-69
2023/12/15 10:39:36;;;;;;;1999.90;999.90;;;;;;;13.87;78.69;103332.75;10456771;28;20068;-69
2023/12/15 10:44:40;;;;;;;1999.90;999.90;;;;;;;13.98;77.07;103344.72;10457854;28;20128;-69
2023/12/15 10:49:42;;;;;;;1999.90;999.90;;;;;;;14.28;76.34;103335.81;10456737;28;20084;-69
2023/12/15 10:54:54;;;;;;;;;;;;;;;14.50;74.60;103330.69;10457907;28;20068;-69
2023/12/15 10:59:56;;;;;;;1999.90;999.90;;;;;;;14.54;73.75;103327.97;10457286;28;20363;-70
2023/12/15 11:05:00;;;;;;;1999.90;999.90;;;;;;;14.85;74.03;103343.63;10456004;28;20055;-69
2023/12/15 11:10:03;;;;;;;1999.90;999.90;;;;;;;15.19;72.22;103345.91;10456954;28;20103;-69
2023/12/15 11:15:13;;;;;;;1999.90;999.90;;;;;;;14.42;75.58;103358.22;10456733;28;20488;-69
2023/12/15 11:20:25;;;;;;;1999.90;999.90;;;;;;;14.69;73.37;103351.19;10455383;28;20495;-69
2023/12/15 11:25:34;;;;;;;1999.90;999.90;;;;;;;14.20;73.40;103360.69;10455633;28;20415;-69
2023/12/15 11:30:42;;;;;;;1999.90;999.90;;;;;;;14.33;75.65;103372.56;10454873;28;20381;-69
2023/12/15 11:35:52;;;;;;;1999.90;999.90;;;;;;;14.32;73.22;103370.84;10455794;28;20045;-69
2023/12/15 11:40:54;;;;;;;1999.90;999.90;;;;;;;15.24;71.31;103370.34;10455389;28;20053;-69
2023/12/15 11:45:57;;;;;;;1999.90;999.90;;;;;;;14.97;70.51;103355.53;10439166;28;20068;-69
2023/12/15 11:51:00;;;;;;;1999.90;999.90;;;;;;;15.00;69.97;103345.72;10456329;28;20053;-69
2023/12/15 11:56:04;;;;;;;1999.90;999.90;;;;;;;15.18;69.59;103349.47;10454692;28;20053;-70
2023/12/15 12:01:08;;;;;;;1999.90;999.90;;;;;;;15.34;68.23;103333.09;10456655;28;20053;-70
2023/12/15 12:06:11;;;;;;;1999.90;999.90;;;;;;;15.93;66.78;103326.44;10455872;28;20059;-69
2023/12/15 12:11:14;;;;;;;1999.90;999.90;;;;;;;15.48;66.84;103333.41;10455821;28;20045;-69
2023/12/15 12:16:19;;;;;;;1999.90;999.90;;;;;;;15.82;65.71;103337.44;10456171;28;20052;-69
2023/12/15 12:21:22;;;;;;;1999.90;999.90;;;;;;;15.19;65.21;103342.41;10455757;28;20131;-69
2023/12/15 12:26:26;;;;;;;1999.90;999.90;;;;;;;15.36;64.76;103325.97;10454245;28;20128;-70
2023/12/15 12:31:28;;;;;;;1999.90;999.90;;;;;;;15.24;65.61;103322.84;10455197;28;20045;-69
2023/12/15 12:36:31;;;;;;;1999.90;999.90;;;;;;;15.51;64.96;103335.09;10453773;28;20560;-69
2023/12/15 12:41:34;;;;;;;1999.90;999.90;;;;;;;14.69;64.11;103343.28;10458518;28;20045;-70
2023/12/15 12:46:37;;;;;;;1999.90;999.90;;;;;;;14.74;66.32;103357.16;10462502;28;20052;-69
2023/12/15 12:51:39;;;;;;;1999.90;999.90;;;;;;;15.27;63.89;103360.63;10462231;28;20073;-69
2023/12/15 12:56:42;;;;;;;1999.90;999.90;;;;;;;15.30;63.96;103366.66;10461187;28;20563;-70
2023/12/15 13:02:01;;;;;;;1999.90;999.90;;;;;;;15.28;63.03;103355.28;10462397;28;20137;-70
2023/12/15 13:07:19;;;;;;;1999.90;999.90;;;;;;;15.67;62.18;103351.19;10461885;28;20056;-70
2023/12/15 13:12:22;;;;;;;1999.90;999.90;;;;;;;15.49;61.30;103350.13;10461607;28;20056;-70
2023/12/15 13:17:25;;;;;;;1999.90;999.90;;;;;;;15.27;63.63;103352.72;10461298;28;20212;-69
2023/12/15 13:22:28;;;;;;;1999.90;999.90;;;;;;;15.08;63.41;103373.59;10461189;28;20128;-69
2023/12/15 13:27:48;;;;;;;1999.90;999.90;;;;;;;15.36;60.36;103373.47;10460977;28;20049;-70
2023/12/15 13:32:51;;;;;;;1999.90;999.90;;;;;;;14.85;61.85;103362.09;10459628;28;20136;-70
2023/12/15 13:37:53;;;;;;;1999.90;999.90;;;;;;;14.61;62.25;103375.19;10460577;28;20543;-70
2023/12/15 13:42:56;;;;;;;1999.90;999.90;;;;;;;14.86;59.89;103369.94;10459234;28;20049;-69
2023/12/15 13:47:58;;;;;;;1999.90;999.90;;;;;;;15.18;59.11;103359.16;10460071;28;20053;-69
2023/12/15 13:53:02;;;;;;;1999.90;999.90;;;;;;;15.54;60.09;103364.00;10459713;28;20051;-69
2023/12/15 13:58:05;;;;;;;1999.90;999.90;;;;;;;15.59;59.50;103377.91;10459805;28;20056;-69
2023/12/15 14:03:08;;;;;;;1999.90;999.90;;;;;;;14.79;60.11;103400.09;10458389;28;20095;-69
2023/12/15 14:08:10;;;;;;;1999.90;999.90;;;;;;;15.05;59.20;103391.28;10459370;28;20423;-69
2023/12/15 14:13:21;;;;;;;1999.90;999.90;;;;;;;14.97;60.03;103389.81;10458182;28;20068;-69
2023/12/15 14:18:25;;;;;;;1999.90;999.90;;;;;;;15.30;59.02;103386.88;10458111;28;20055;-69
2023/12/15 14:23:28;;;;;;;1999.90;999.90;;;;;;;14.64;59.04;103409.38;10458640;28;20128;-69
2023/12/15 14:28:31;;;;;;;1999.90;999.90;;;;;;;14.61;60.87;103416.53;10458676;28;20052;-69
2023/12/15 14:33:34;;;;;;;1999.90;999.90;;;;;;;15.19;58.28;103429.50;10457213;28;20051;-69
2023/12/15 14:38:36;;;;;;;1999.90;999.90;;;;;;;14.91;60.02;103438.38;10440414;28;20056;-69
2023/12/15 14:43:39;;;;;;;1999.90;999.90;;;;;;;14.53;60.36;103447.53;10456773;28;20051;-69
2023/12/15 14:48:42;;;;;;;1999.90;999.90;;;;;;;14.16;60.44;103467.97;10457532;28;20385;-69
2023/12/15 14:53:45;;;;;;;1999.90;999.90;;;;;;;14.86;57.96;103461.38;10457756;28;20095;-69
2023/12/15 14:58:47;;;;;;;1999.90;999.90;;;;;;;15.15;58.81;103441.09;10457384;28;20059;-69
2023/12/15 15:03:50;;;;;;;1999.90;999.90;;;;;;;14.51;58.50;103447.56;10456386;28;20083;-69
2023/12/15 15:08:52;;;;;;;1999.90;999.90;;;;;;;14.35;59.52;103452.44;10457123;28;20083;-70
2023/12/15 15:13:54;;;;;;;1999.90;999.90;;;;;;;15.28;57.76;103446.78;10455756;28;20041;-69
2023/12/15 15:18:57;;;;;;;1999.90;999.90;;;;;;;15.07;56.88;103448.41;10456918;28;20048;-69
2023/12/15 15:23:59;;;;;;;1999.90;999.90;;;;;;;14.68;58.55;103468.16;10456438;28;20110;-69
2023/12/15 15:29:02;;;;;;;1999.90;999.90;;;;;;;14.81;58.55;103469.47;10456643;28;20128;-69
2023/12/15 15:34:04;;;;;;;1999.90;999.90;;;;;;;14.70;59.84;103453.13;10456381;28;20124;-69
2023/12/15 15:39:07;;;;;;;1999.90;999.90;;;;;;;14.70;58.79;103454.91;10456200;28;20562;-69
2023/12/15 15:44:09;;;;;;;1999.90;999.90;;;;;;;15.00;57.26;103471.50;10456197;28;20048;-69
2023/12/15 15:49:22;;;;;;;1999.90;999.90;;;;;;;14.43;59.29;103494.38;10456046;28;20132;-69
2023/12/15 15:54:25;;;;;;;1999.90;999.90;;;;;;;14.66;57.60;103506.91;10456389;28;20535;-69
2023/12/15 15:59:27;;;;;;;1999.90;999.90;;;;;;;14.57;58.25;103513.25;10455753;28;20407;-69
2023/12/15 16:04:29;;;;;;;1999.90;999.90;;;;;;;14.82;56.97;103516.00;10455668;28;20049;-69
2023/12/15 16:09:32;;;;;;;1999.90;999.90;;;;;;;14.97;57.75;103527.00;10454711;28;20132;-69
2023/12/15 16:14:34;;;;;;;1999.90;999.90;;;;;;;13.87;58.12;103517.09;10459355;28;20128;-69
2023/12/15 16:19:37;;;;;;;1999.90;999.90;;;;;;;14.41;58.39;103512.03;10464178;28;20095;-68
2023/12/15 16:24:40;;;;;;;1999.90;999.90;;;;;;;14.45;57.44;103513.66;10463301;28;20083;-69
2023/12/15 16:29:42;;;;;;;1999.90;999.90;;;;;;;14.27;58.70;103496.59;10445668;28;20110;-69
2023/12/15 16:34:44;;;;;;;1999.90;999.90;;;;;;;14.59;57.78;103497.44;10462823;28;20044;-69
2023/12/15 16:39:47;;;;;;;1999.90;999.90;;;;;;;13.85;60.23;103496.97;10462824;28;20053;-69
2023/12/15 16:44:51;;;;;;;1999.90;999.90;;;;;;;14.23;58.31;103510.81;10462510;28;20052;-69
2023/12/15 16:49:53;;;;;;;1999.90;999.90;;;;;;;14.51;57.45;103529.28;10461441;28;20056;-69
2023/12/15 16:54:55;;;;;;;1999.90;999.90;;;;;;;14.86;56.90;103537.88;10462147;28;20147;-69
2023/12/15 16:59:58;;;;;;;1999.90;999.90;;;;;;;14.19;58.04;103553.94;10460753;28;20049;-69
2023/12/15 17:05:01;;;;;;;1999.90;999.90;;;;;;;14.37;57.59;103557.81;10461680;28;20045;-69
2023/12/15 17:10:03;;;;;;;1999.90;999.90;;;;;;;14.91;56.80;103566.75;10460665;28;20460;-69
2023/12/15 17:15:06;;;;;;;1999.90;999.90;;;;;;;14.29;58.44;103573.88;10460585;28;20045;-69
2023/12/15 17:20:09;;;;;;;1999.90;999.90;;;;;;;13.92;58.78;103565.22;10443807;28;20055;-69
2023/12/15 17:25:13;;;;;;;1999.90;999.90;;;;;;;14.35;57.44;103571.03;10460124;28;20041;-69
2023/12/15 17:30:16;;;;;;;1999.90;999.90;;;;;;;14.00;59.17;103569.41;10459858;28;20057;-69
2023/12/15 17:35:18;;;;;;;1999.90;999.90;;;;;;;14.10;58.81;103544.53;10460669;28;20049;-69
2023/12/15 17:40:26;;;;;;;1999.90;999.90;;;;;;;13.46;59.04;103549.78;10460181;28;20067;-69
2023/12/15 17:45:29;;;;;;;1999.90;999.90;;;;;;;14.19;57.85;103551.31;10460371;28;20049;-69
2023/12/15 17:50:31;;;;;;;1999.90;999.90;;;;;;;13.76;58.62;103556.00;10460187;28;20049;-69
2023/12/15 17:55:34;;;;;;;1999.90;999.90;;;;;;;13.77;59.29;103546.34;10459267;28;20125;-69
2023/12/15 18:00:38;;;;;;;1999.90;999.90;;;;;;;13.86;59.18;103560.13;10458661;28;20059;-69
2023/12/15 18:05:40;;;;;;;1999.90;999.90;;;;;;;14.06;58.50;103558.72;10458106;28;20045;-69
2023/12/15 18:10:45;;;;;;;1999.90;999.90;;;;;;;14.22;58.39;103575.81;10459476;28;20056;-69
2023/12/15 18:15:47;;;;;;;1999.90;999.90;;;;;;;13.75;60.11;103584.13;10459316;28;20049;-69
2023/12/15 18:20:50;;;;;;;1999.90;999.90;;;;;;;13.69;59.38;103576.38;10457787;28;20098;-69
2023/12/15 18:25:52;;;;;;;1999.90;999.90;;;;;;;14.36;57.95;103579.84;10457441;28;20395;-69
2023/12/15 18:30:55;;;;;;;1999.90;999.90;;;;;;;14.26;59.54;103584.50;10458521;28;20060;-69
2023/12/15 18:35:57;;;;;;;1999.90;999.90;;;;;;;13.44;59.68;103599.81;10457828;28;20053;-69
2023/12/15 18:41:00;;;;;;;1999.90;999.90;;;;;;;13.50;60.38;103594.41;10457451;28;20057;-69
2023/12/15 18:46:02;;;;;;;1999.90;999.90;;;;;;;14.14;59.61;103606.78;10456745;28;20555;-69
2023/12/15 18:51:07;;;;;;;1999.90;999.90;;;;;;;14.08;57.62;103605.16;10457788;28;20049;-69
2023/12/15 18:56:19;;;;;;;1999.90;999.90;;;;;;;14.23;58.77;103613.56;10457494;28;20446;-69
2023/12/15 19:01:23;;;;;;;1999.90;999.90;;;;;;;13.57;59.17;103606.50;10456153;28;20049;-69
2023/12/15 19:06:26;;;;;;;1999.90;999.90;;;;;;;12.98;59.75;103616.69;10457325;28;20049;-69
2023/12/15 19:11:30;;;;;;;1999.90;999.90;;;;;;;13.25;60.87;103623.06;10455750;28;20488;-69
2023/12/15 19:16:33;;;;;;;1999.90;999.90;;;;;;;13.62;59.89;103623.97;10455603;28;20049;-69
2023/12/15 19:21:35;;;;;;;1999.90;999.90;;;;;;;13.76;59.20;103611.31;10455625;28;20048;-69
2023/12/15 19:26:40;;;;;;;1999.90;999.90;;;;;;;14.00;57.40;103617.69;10456485;28;20055;-69
2023/12/15 19:31:42;;;;;;;1999.90;999.90;;;;;;;13.81;59.36;103630.47;10455402;28;20507;-69
2023/12/15 19:36:45;;;;;;;1999.90;999.90;;;;;;;13.78;58.00;103641.09;10438759;28;20520;-69
2023/12/15 19:41:48;;;;;;;1999.90;999.90;;;;;;;13.90;58.28;103653.97;10456084;28;20053;-69
2023/12/15 19:46:51;;;;;;;1999.90;999.90;;;;;;;13.95;57.17;103677.53;10456164;28;20393;-69
2023/12/15 19:51:53;;;;;;;1999.90;999.90;;;;;;;13.84;58.65;103683.06;10469333;22;20049;-69
2023/12/15 19:56:56;;;;;;;1999.90;999.90;;;;;;;13.11;58.63;103688.28;10446909;28;20110;-69
2023/12/15 20:02:02;;;;;;;1999.90;999.90;;;;;;;13.70;57.35;103703.59;10464300;28;20055;-69
2023/12/15 20:07:05;;;;;;;1999.90;999.90;;;;;;;14.21;56.38;103695.28;10463122;28;20048;-69
2023/12/15 20:12:08;;;;;;;1999.90;999.90;;;;;;;13.41;57.74;103707.78;10464423;28;20124;-69
2023/12/15 20:17:10;;;;;;;1999.90;999.90;;;;;;;13.18;58.77;103698.63;10463859;28;20055;-69
2023/12/15 20:22:12;;;;;;;1999.90;999.90;;;;;;;13.73;58.03;103690.38;10462336;28;20053;-69
2023/12/15 20:27:17;;;;;;;1999.90;999.90;;;;;;;13.75;58.00;103692.06;10463268;28;20057;-69
2023/12/15 20:32:19;;;;;;;1999.90;999.90;;;;;;;13.09;60.61;103692.72;10463253;28;20053;-69
2023/12/15 20:37:22;;;;;;;1999.90;999.90;;;;;;;13.61;58.62;103688.91;10462841;28;20055;-69
2023/12/15 20:42:26;;;;;;;1999.90;999.90;;;;;;;13.78;58.26;103701.66;10461745;28;20053;-69
2023/12/15 20:47:30;;;;;;;1999.90;999.90;;;;;;;13.18;59.76;103695.16;10462555;28;20049;-69
2023/12/15 20:52:32;;;;;;;1999.90;999.90;;;;;;;13.50;58.91;103702.34;10462516;28;20076;-69
2023/12/15 20:57:35;;;;;;;1999.90;999.90;;;;;;;13.30;58.88;103710.66;10460898;28;20480;-69
2023/12/15 21:02:38;;;;;;;1999.90;999.90;;;;;;;13.60;58.30;103710.00;10460958;28;20048;-69
2023/12/15 21:07:41;;;;;;;1999.90;999.90;;;;;;;13.57;58.92;103709.19;10461724;28;20136;-69
2023/12/15 21:12:43;;;;;;;1999.90;999.90;;;;;;;13.73;58.10;103706.16;10461548;28;20041;-69
2023/12/15 21:17:45;;;;;;;1999.90;999.90;;;;;;;13.13;57.79;103708.41;10461315;28;20450;-69
2023/12/15 21:22:48;;;;;;;1999.90;999.90;;;;;;;13.85;58.72;103694.47;10461123;28;20052;-69
2023/12/15 21:27:51;;;;;;;1999.90;999.90;;;;;;;13.72;57.98;103684.25;10460140;28;20053;-69
2023/12/15 21:32:54;;;;;;;1999.90;999.90;;;;;;;12.93;59.84;103700.94;10460685;28;20107;-69
2023/12/15 21:37:57;;;;;;;1999.90;999.90;;;;;;;13.38;58.53;103702.59;10460490;28;20056;-69
2023/12/15 21:42:59;;;;;;;1999.90;999.90;;;;;;;13.80;58.89;103704.25;10460384;28;20048;-69
2023/12/15 21:48:02;;;;;;;1999.90;999.90;;;;;;;13.01;61.23;103711.28;10460400;28;20122;-69
2023/12/15 21:53:05;;;;;;;1999.90;999.90;;;;;;;14.08;58.74;103709.69;10459977;28;20053;-69
2023/12/15 21:58:07;;;;;;;1999.90;999.90;;;;;;;13.89;57.99;103711.94;10459689;28;20072;-69